createdAt,value
2023-10-26T00:01:23.346Z,26.73
2023-10-26T00:06:28.288Z,30.25
2023-10-26T00:11:31.933Z,26.02
2023-10-26T00:16:35.471Z,29.02
2023-10-26T00:21:40.773Z,24.08
2023-10-26T00:26:44.317Z,22.20
2023-10-26T00:31:47.851Z,23.95
2023-10-26T00:36:52.753Z,27.15
2023-10-26T00:41:57.361Z,29.17
2023-10-26T00:47:02.513Z,25.35
2023-10-26T00:52:07.815Z,22.58
2023-10-26T00:57:12.417Z,21.98
2023-10-26T01:02:17.279Z,29.38
2023-10-26T01:07:22.438Z,26.33
2023-10-26T01:12:27.498Z,31.10
2023-10-26T01:17:32.195Z,31.10
2023-10-26T01:22:37.087Z,26.52
2023-10-26T01:27:40.715Z,34.50
2023-10-26T01:32:44.308Z,34.55
2023-10-26T01:37:49.228Z,32.17
2023-10-26T01:42:52.986Z,33.80
2023-10-26T01:47:56.636Z,36.78
2023-10-26T01:53:01.640Z,46.22
2023-10-26T01:58:05.254Z,52.13
2023-10-26T02:03:08.865Z,47.58
2023-10-26T02:08:13.788Z,43.38
2023-10-26T02:13:17.392Z,47.72
2023-10-26T02:18:21.122Z,46.10
2023-10-26T02:23:27.087Z,47.53
2023-10-26T02:28:30.623Z,46.58
2023-10-26T02:33:34.235Z,43.83
2023-10-26T02:38:39.345Z,40.08
2023-10-26T02:43:42.848Z,45.20
2023-10-26T02:48:46.390Z,43.72
2023-10-26T02:53:51.492Z,38.40
2023-10-26T02:58:57.014Z,42.58
2023-10-26T03:04:00.789Z,34.65
2023-10-26T03:09:06.286Z,29.38
2023-10-26T03:14:09.867Z,34.22
2023-10-26T03:19:13.470Z,33.70
2023-10-26T03:24:18.391Z,35.58
2023-10-26T03:29:22.597Z,34.85
2023-10-26T03:34:26.149Z,36.47
2023-10-26T03:39:31.481Z,30.52
2023-10-26T03:44:35.077Z,39.15
2023-10-26T03:49:38.975Z,33.08
2023-10-26T03:54:44.098Z,28.88
2023-10-26T03:59:47.869Z,29.50
2023-10-26T04:04:51.788Z,35.10
2023-10-26T04:09:56.780Z,31.70
2023-10-26T04:15:00.364Z,31.25
2023-10-26T04:20:04.065Z,29.95
2023-10-26T04:25:09.859Z,32.53
2023-10-26T04:30:13.974Z,27.10
2023-10-26T04:35:17.604Z,27.48
2023-10-26T04:40:22.753Z,29.45
2023-10-26T04:45:26.469Z,34.20
2023-10-26T04:50:31.307Z,30.67
2023-10-26T04:55:36.303Z,34.10
2023-10-26T05:00:40.472Z,27.25
2023-10-26T05:05:44.149Z,32.97
2023-10-26T05:10:49.132Z,30.17
2023-10-26T05:15:52.767Z,29.58
2023-10-26T05:20:57.636Z,28.17
2023-10-26T05:26:02.590Z,32.10
2023-10-26T05:31:06.283Z,65.85
2023-10-26T05:36:10.508Z,83.13
2023-10-26T05:41:15.435Z,36.55
2023-10-26T05:46:19.181Z,40.70
2023-10-26T05:51:22.839Z,90.75
2023-10-26T05:56:27.748Z,90.22
2023-10-26T06:01:32.000Z,66.53
2023-10-26T06:06:36.053Z,56.45
2023-10-26T06:11:41.436Z,86.78
2023-10-26T06:16:44.966Z,74.10
2023-10-26T06:21:48.601Z,57.63
2023-10-26T06:26:53.546Z,68.45
2023-10-26T06:31:57.156Z,50.50
2023-10-26T06:37:00.727Z,42.95
2023-10-26T06:42:06.119Z,78.13
2023-10-26T06:47:10.381Z,56.33
2023-10-26T06:52:14.038Z,27.75
2023-10-26T06:57:18.979Z,25.70
2023-10-26T07:02:22.496Z,111.90
2023-10-26T07:07:26.985Z,109.03
2023-10-26T07:12:34.880Z,131.55
2023-10-26T07:17:38.543Z,130.05
2023-10-26T07:22:43.726Z,129.75
2023-10-26T07:27:48.627Z,125.43
2023-10-26T07:32:52.247Z,98.28
2023-10-26T07:38:09.079Z,88.68
2023-10-26T07:43:20.950Z,143.90
2023-10-26T07:48:24.680Z,63.15
2023-10-26T07:53:29.692Z,111.80
2023-10-26T07:58:34.746Z,65.70
2023-10-26T08:03:38.528Z,187.32
2023-10-26T08:08:42.164Z,79.22
2023-10-26T08:13:47.245Z,39.35
2023-10-26T08:18:50.915Z,91.45
2023-10-26T08:23:54.774Z,63.20
2023-10-26T08:34:06.355Z,54.53
2023-10-26T08:39:10.029Z,31.48
2023-10-26T08:44:15.164Z,31.27
2023-10-26T08:49:18.901Z,41.95
2023-10-26T08:54:22.621Z,33.30
2023-10-26T08:59:29.620Z,35.83
2023-10-26T09:04:33.863Z,36.13
2023-10-26T09:09:46.662Z,34.55
2023-10-26T09:15:00.717Z,39.75
2023-10-26T09:20:17.943Z,41.22
2023-10-26T09:25:21.759Z,37.67
2023-10-26T09:30:31.269Z,51.40
2023-10-26T09:35:35.788Z,46.45
2023-10-26T09:40:39.910Z,49.65
2023-10-26T09:45:45.352Z,44.80
2023-10-26T09:50:50.967Z,50.88
2023-10-26T09:55:54.761Z,50.05
2023-10-26T10:00:59.702Z,49.65
2023-10-26T10:06:05.176Z,47.13
2023-10-26T10:11:19.308Z,52.47
2023-10-26T10:16:55.403Z,49.17
2023-10-26T10:21:59.242Z,42.63
2023-10-26T10:27:13.517Z,42.63
2023-10-26T10:32:52.399Z,45.55
2023-10-26T10:38:23.906Z,44.88
2023-10-26T10:43:32.461Z,46.78
2023-10-26T10:48:38.120Z,43.00
2023-10-26T10:53:41.774Z,42.13
2023-10-26T10:58:45.346Z,43.72
2023-10-26T11:03:51.036Z,42.60
2023-10-26T11:08:54.677Z,40.08
2023-10-26T11:14:09.545Z,41.38
2023-10-26T11:19:14.555Z,40.72
2023-10-26T11:24:20.264Z,40.22
2023-10-26T11:29:23.926Z,37.42
2023-10-26T11:34:29.216Z,35.08
2023-10-26T11:39:32.894Z,40.03
2023-10-26T11:44:36.431Z,38.83
2023-10-26T11:49:42.997Z,33.80
2023-10-26T11:54:53.861Z,32.83
2023-10-26T11:59:59.171Z,30.00
2023-10-26T12:05:04.755Z,29.92
2023-10-26T12:10:09.077Z,33.45
2023-10-26T12:15:13.180Z,31.08
2023-10-26T12:20:18.411Z,33.42
2023-10-26T12:25:22.088Z,27.90
2023-10-26T12:30:25.714Z,31.92
2023-10-26T12:35:30.696Z,32.17
2023-10-26T12:40:34.323Z,35.05
2023-10-26T12:45:38.250Z,39.92
2023-10-26T12:50:43.180Z,36.53
2023-10-26T12:55:46.705Z,34.72
2023-10-26T13:00:50.526Z,29.88
2023-10-26T13:05:55.418Z,35.28
2023-10-26T13:10:58.993Z,37.40
2023-10-26T13:16:02.588Z,33.95
2023-10-26T13:21:08.231Z,32.83
2023-10-26T13:26:12.101Z,31.92
2023-10-26T13:31:15.766Z,33.65
2023-10-26T13:36:20.709Z,27.40
2023-10-26T13:41:24.923Z,31.77
2023-10-26T13:46:29.378Z,29.40
2023-10-26T13:51:34.509Z,30.70
2023-10-26T13:56:38.018Z,33.33
2023-10-26T14:01:42.121Z,30.92
2023-10-26T14:06:47.217Z,33.10
2023-10-26T14:11:50.770Z,32.25
2023-10-26T14:16:54.385Z,30.42
2023-10-26T14:21:59.398Z,31.23
2023-10-26T14:27:03.072Z,27.77
2023-10-26T14:32:07.128Z,26.10
2023-10-26T14:37:13.051Z,26.23
2023-10-26T14:42:17.288Z,22.50
2023-10-26T14:47:20.847Z,23.52
2023-10-26T14:52:25.781Z,24.52
2023-10-26T14:57:29.306Z,23.88
2023-10-26T15:02:32.962Z,25.73
2023-10-26T15:07:38.227Z,25.88
2023-10-26T15:12:41.819Z,23.35
2023-10-26T15:17:45.610Z,24.30
2023-10-26T15:22:50.518Z,24.20
2023-10-26T15:27:55.351Z,26.48
2023-10-26T15:33:00.483Z,29.63
2023-10-26T15:38:05.449Z,30.00
2023-10-26T15:43:09.083Z,29.08
2023-10-26T15:48:12.733Z,27.05
2023-10-26T15:53:20.161Z,26.85
2023-10-26T15:58:23.757Z,25.23
2023-10-26T16:03:30.701Z,24.58
2023-10-26T16:08:37.286Z,23.95
2023-10-26T16:13:41.695Z,27.60
2023-10-26T16:18:47.555Z,32.22
2023-10-26T16:23:52.632Z,28.77
2023-10-26T16:28:56.199Z,28.48
2023-10-26T16:33:59.805Z,28.13
2023-10-26T16:39:05.578Z,27.63
2023-10-26T16:44:09.386Z,27.50
2023-10-26T16:49:12.988Z,25.02
2023-10-26T16:54:17.898Z,25.42
2023-10-26T16:59:21.427Z,31.75
2023-10-26T17:04:24.972Z,24.55
2023-10-26T17:09:29.996Z,27.92
2023-10-26T17:14:33.520Z,23.50
2023-10-26T17:19:37.032Z,26.98
2023-10-26T17:24:42.073Z,27.33
2023-10-26T17:29:48.394Z,21.33
2023-10-26T17:34:52.045Z,24.30
2023-10-26T17:39:57.020Z,24.85
2023-10-26T17:45:00.631Z,21.90
2023-10-26T17:50:04.277Z,27.23
2023-10-26T17:55:12.937Z,24.40
2023-10-26T18:00:17.251Z,26.45
2023-10-26T18:05:21.864Z,26.63
2023-10-26T18:10:26.763Z,27.70
2023-10-26T18:15:30.309Z,29.13
2023-10-26T18:20:33.879Z,30.10
2023-10-26T18:25:38.753Z,31.33
2023-10-26T18:30:42.431Z,29.13
2023-10-26T18:35:46.062Z,33.67
2023-10-26T18:40:50.928Z,33.10
2023-10-26T18:45:58.819Z,38.20
2023-10-26T18:51:02.715Z,35.75
2023-10-26T18:56:14.243Z,38.42
2023-10-26T19:01:18.038Z,39.60
2023-10-26T19:06:21.666Z,39.53
2023-10-26T19:11:26.574Z,42.70
2023-10-26T19:16:30.205Z,43.92
2023-10-26T19:21:33.811Z,51.38
2023-10-26T19:26:38.695Z,57.08
2023-10-26T19:31:42.385Z,54.83
2023-10-26T19:36:45.985Z,48.42
2023-10-26T19:41:50.967Z,46.15
2023-10-26T19:46:54.590Z,47.92
2023-10-26T19:51:58.261Z,54.42
2023-10-26T19:57:03.783Z,51.15
2023-10-26T20:02:07.734Z,49.22
2023-10-26T20:07:11.657Z,46.10
2023-10-26T20:12:16.574Z,47.22
2023-10-26T20:17:20.180Z,45.53
2023-10-26T20:22:23.719Z,50.42
2023-10-26T20:27:28.605Z,47.38
2023-10-26T20:32:33.979Z,48.35
2023-10-26T20:37:40.563Z,46.83
2023-10-26T20:42:46.505Z,45.88
2023-10-26T20:47:50.218Z,54.08
2023-10-26T20:52:53.741Z,50.42
2023-10-26T20:57:58.961Z,104.47
2023-10-26T21:03:02.578Z,57.55
2023-10-26T21:08:06.579Z,61.45
2023-10-26T21:13:11.663Z,55.10
2023-10-26T21:18:15.364Z,54.05
2023-10-26T21:23:18.857Z,56.70
2023-10-26T21:28:24.828Z,54.67
2023-10-26T21:33:28.469Z,58.28
2023-10-26T21:38:32.025Z,55.65
2023-10-26T21:43:36.964Z,60.10
2023-10-26T21:48:40.944Z,55.22
2023-10-26T21:53:44.634Z,57.92
2023-10-26T21:58:51.218Z,58.47
2023-10-26T22:04:17.911Z,65.38
2023-10-26T22:09:22.066Z,58.25
2023-10-26T22:14:27.068Z,60.95
2023-10-26T22:19:31.003Z,55.95
2023-10-26T22:24:34.505Z,56.58
2023-10-26T22:29:39.441Z,56.13
2023-10-26T22:34:43.061Z,60.22
2023-10-26T22:39:46.879Z,67.35
2023-10-26T22:44:52.151Z,63.15
2023-10-26T22:49:56.846Z,65.75
2023-10-26T22:55:01.160Z,63.92
2023-10-26T23:00:07.630Z,60.78
2023-10-26T23:05:11.176Z,69.13
2023-10-26T23:10:14.749Z,61.33
2023-10-26T23:15:19.719Z,71.10
2023-10-26T23:20:23.245Z,66.90
2023-10-26T23:25:26.883Z,72.00
2023-10-26T23:30:31.818Z,65.93
2023-10-26T23:35:38.884Z,66.35
2023-10-26T23:40:42.524Z,62.08
2023-10-26T23:45:47.662Z,70.10
2023-10-26T23:50:52.031Z,69.13
2023-10-26T23:55:55.571Z,70.10
